createdAt,value
2022-11-26T00:03:45.035Z,7.68
2022-11-26T00:10:46.776Z,7.93
2022-11-26T00:17:49.151Z,8.10
2022-11-26T00:24:50.908Z,8.73
2022-11-26T00:31:52.544Z,8.43
2022-11-26T00:38:58.028Z,9.63
2022-11-26T00:45:59.666Z,9.15
2022-11-26T00:53:01.242Z,8.77
2022-11-26T01:00:06.485Z,9.32
2022-11-26T01:07:10.181Z,7.75
2022-11-26T01:14:18.934Z,8.60
2022-11-26T01:21:20.730Z,9.20
2022-11-26T01:28:22.505Z,8.52
2022-11-26T01:35:24.069Z,9.60
2022-11-26T01:42:36.970Z,8.95
2022-11-26T01:49:38.523Z,9.55
2022-11-26T01:56:48.523Z,10.65
2022-11-26T02:03:55.241Z,9.57
2022-11-26T02:10:56.828Z,9.77
2022-11-26T02:18:01.532Z,11.02
2022-11-26T02:25:18.687Z,11.43
2022-11-26T02:32:21.529Z,10.18
2022-11-26T02:39:24.262Z,10.65
2022-11-26T02:46:25.916Z,9.98
2022-11-26T02:53:28.987Z,10.93
2022-11-26T03:00:31.905Z,9.68
2022-11-26T03:07:33.617Z,13.27
2022-11-26T03:14:35.434Z,11.85
2022-11-26T03:21:37.162Z,10.90
2022-11-26T03:28:38.823Z,10.38
2022-11-26T03:35:40.447Z,10.13
2022-11-26T03:42:42.514Z,10.43
2022-11-26T03:49:44.154Z,12.68
2022-11-26T03:56:45.717Z,13.63
2022-11-26T04:03:47.345Z,13.57
2022-11-26T04:10:50.449Z,13.38
2022-11-26T04:17:52.070Z,15.77
2022-11-26T04:24:53.642Z,14.60
2022-11-26T04:31:55.307Z,11.23
2022-11-26T04:38:57.650Z,12.48
2022-11-26T04:45:59.417Z,12.00
2022-11-26T04:53:01.047Z,11.40
2022-11-26T05:00:03.443Z,11.23
2022-11-26T05:07:05.125Z,11.40
2022-11-26T05:14:06.663Z,10.63
2022-11-26T05:21:08.233Z,9.82
2022-11-26T05:28:09.881Z,8.40
2022-11-26T05:35:11.425Z,10.43
2022-11-26T05:42:12.984Z,9.80
2022-11-26T05:49:14.586Z,12.75
2022-11-26T05:56:16.339Z,11.10
2022-11-26T06:03:20.353Z,8.80
2022-11-26T06:10:22.261Z,9.77
2022-11-26T06:17:23.891Z,7.75
2022-11-26T06:24:25.439Z,8.45
2022-11-26T06:31:27.044Z,8.93
2022-11-26T06:38:28.677Z,7.82
2022-11-26T06:45:30.337Z,6.80
2022-11-26T06:52:31.972Z,8.45
2022-11-26T06:59:33.595Z,6.72
2022-11-26T07:06:35.822Z,7.40
2022-11-26T07:13:37.491Z,8.57
2022-11-26T07:20:39.105Z,6.88
2022-11-26T07:27:41.086Z,9.07
2022-11-26T07:34:42.709Z,7.43
2022-11-26T07:41:44.290Z,6.78
2022-11-26T07:48:45.917Z,7.35
2022-11-26T07:55:47.493Z,7.78
2022-11-26T08:02:49.111Z,7.38
2022-11-26T08:09:50.681Z,6.43
2022-11-26T08:16:52.330Z,8.25
2022-11-26T08:23:54.060Z,6.85
2022-11-26T08:31:05.804Z,6.75
2022-11-26T08:38:07.455Z,7.25
2022-11-26T08:45:09.321Z,6.40
2022-11-26T08:52:10.888Z,6.70
2022-11-26T08:59:12.499Z,7.78
2022-11-26T09:06:14.054Z,5.43
2022-11-26T09:13:20.784Z,7.00
2022-11-26T09:20:22.695Z,6.60
2022-11-26T09:27:24.265Z,6.25
2022-11-26T09:34:25.821Z,5.72
2022-11-26T09:41:39.361Z,5.20
2022-11-26T09:48:40.926Z,5.47
2022-11-26T09:55:44.254Z,5.10
2022-11-26T10:02:45.876Z,5.75
2022-11-26T10:09:49.717Z,6.20
2022-11-26T10:17:15.266Z,5.45
2022-11-26T10:24:37.116Z,5.13
2022-11-26T10:31:39.600Z,5.53
2022-11-26T10:38:41.187Z,4.57
2022-11-26T10:45:42.710Z,4.55
2022-11-26T10:52:44.470Z,4.03
2022-11-26T10:59:51.643Z,4.55
2022-11-26T11:06:53.260Z,3.63
2022-11-26T11:13:54.938Z,3.72
2022-11-26T11:20:57.938Z,4.05
2022-11-26T11:28:12.179Z,4.15
2022-11-26T11:35:20.224Z,4.22
2022-11-26T11:42:29.124Z,4.50
2022-11-26T11:49:55.320Z,3.45
2022-11-26T11:57:06.697Z,3.35
2022-11-26T12:04:45.925Z,3.90
2022-11-26T12:11:47.397Z,3.67
2022-11-26T12:18:53.895Z,3.33
2022-11-26T12:26:28.265Z,3.88
2022-11-26T12:33:50.293Z,4.00
2022-11-26T12:41:12.649Z,4.05
2022-11-26T12:48:45.646Z,3.70
2022-11-26T12:55:57.609Z,4.22
2022-11-26T13:02:59.278Z,4.82
2022-11-26T13:10:13.261Z,4.25
2022-11-26T13:17:16.197Z,4.72
2022-11-26T13:24:34.264Z,4.90
2022-11-26T13:31:54.249Z,5.03
2022-11-26T13:39:37.850Z,5.87
2022-11-26T13:47:01.517Z,5.28
2022-11-26T13:54:34.803Z,4.82
2022-11-26T14:01:40.227Z,5.18
2022-11-26T14:08:46.850Z,5.88
2022-11-26T14:15:56.591Z,5.57
2022-11-26T14:23:02.164Z,5.27
2022-11-26T14:30:06.113Z,4.70
2022-11-26T14:37:15.375Z,4.13
2022-11-26T14:44:17.438Z,4.55
2022-11-26T14:51:22.612Z,4.40
2022-11-26T14:58:36.591Z,4.97
2022-11-26T15:05:43.566Z,5.18
2022-11-26T15:12:47.964Z,5.88
2022-11-26T15:19:53.005Z,6.47
2022-11-26T15:26:54.591Z,7.32
2022-11-26T15:33:56.179Z,6.47
2022-11-26T15:41:08.018Z,7.03
2022-11-26T15:48:51.103Z,6.57
2022-11-26T15:55:52.807Z,5.68
2022-11-26T16:02:54.392Z,7.18
2022-11-26T16:10:22.290Z,6.55
2022-11-26T16:17:23.928Z,6.32
2022-11-26T16:24:36.811Z,5.63
2022-11-26T16:31:38.471Z,5.15
2022-11-26T16:38:40.045Z,5.75
2022-11-26T16:45:41.710Z,6.05
2022-11-26T16:52:43.337Z,6.38
2022-11-26T16:59:47.111Z,6.60
2022-11-26T17:06:48.779Z,5.88
2022-11-26T17:13:50.466Z,4.75
2022-11-26T17:20:53.041Z,4.88
2022-11-26T17:27:54.685Z,5.57
2022-11-26T17:34:56.302Z,5.85
2022-11-26T17:41:58.215Z,5.18
2022-11-26T17:49:00.131Z,5.65
2022-11-26T17:56:01.881Z,4.95
2022-11-26T18:03:03.581Z,5.95
2022-11-26T18:10:06.801Z,6.05
2022-11-26T18:17:09.534Z,6.47
2022-11-26T18:24:11.262Z,10.13
2022-11-26T18:31:13.011Z,5.97
2022-11-26T18:38:14.702Z,6.93
2022-11-26T18:45:16.294Z,7.55
2022-11-26T18:52:17.877Z,7.53
2022-11-26T18:59:19.445Z,7.75
2022-11-26T19:06:22.527Z,8.13
2022-11-26T19:13:24.168Z,7.18
2022-11-26T19:20:25.755Z,8.77
2022-11-26T19:27:27.322Z,8.25
2022-11-26T19:34:28.908Z,8.18
2022-11-26T19:41:30.533Z,8.15
2022-11-26T19:48:32.985Z,7.90
2022-11-26T19:55:34.555Z,8.40
2022-11-26T20:02:36.222Z,7.85
2022-11-26T20:09:38.379Z,9.27
2022-11-26T20:16:42.506Z,8.00
2022-11-26T20:23:44.199Z,8.32
2022-11-26T20:30:45.804Z,8.80
2022-11-26T20:37:47.442Z,9.18
2022-11-26T20:44:49.111Z,8.07
2022-11-26T20:51:50.790Z,9.55
2022-11-26T20:58:52.605Z,9.45
2022-11-26T21:05:54.308Z,8.88
2022-11-26T21:12:55.892Z,9.13
2022-11-26T21:19:57.479Z,9.15
2022-11-26T21:26:59.047Z,9.88
2022-11-26T21:34:03.576Z,10.13
2022-11-26T21:41:11.570Z,9.90
2022-11-26T21:48:13.124Z,10.63
2022-11-26T21:55:14.765Z,8.80
2022-11-26T22:02:16.375Z,8.90
2022-11-26T22:09:18.096Z,9.05
2022-11-26T22:16:21.489Z,8.98
2022-11-26T22:23:23.169Z,9.20
2022-11-26T22:30:24.753Z,9.00
2022-11-26T22:37:26.387Z,9.18
2022-11-26T22:44:27.948Z,9.73
2022-11-26T22:51:30.584Z,9.40
2022-11-26T22:58:33.102Z,9.95
2022-11-26T23:05:38.255Z,7.90
2022-11-26T23:12:39.845Z,8.73
2022-11-26T23:19:41.689Z,9.95
2022-11-26T23:26:43.564Z,7.90
2022-11-26T23:33:45.266Z,8.75
2022-11-26T23:41:02.241Z,9.55
2022-11-26T23:48:03.946Z,12.30
2022-11-26T23:55:05.933Z,11.00
